createdAt,value
2018-11-04T00:01:10.813Z,5.60
2018-11-04T00:03:39.384Z,5.60
2018-11-04T00:06:07.832Z,5.60
2018-11-04T00:08:36.312Z,5.50
2018-11-04T00:11:05.210Z,5.50
2018-11-04T00:13:33.710Z,5.40
2018-11-04T00:16:02.195Z,5.40
2018-11-04T00:18:30.592Z,5.40
2018-11-04T00:20:58.998Z,5.40
2018-11-04T00:23:27.485Z,5.30
2018-11-04T00:25:55.905Z,5.30
2018-11-04T00:28:24.349Z,5.30
2018-11-04T00:30:52.782Z,5.40
2018-11-04T00:33:21.206Z,5.40
2018-11-04T00:35:50.256Z,5.50
2018-11-04T00:38:18.665Z,5.50
2018-11-04T00:40:47.148Z,5.50
2018-11-04T00:43:15.557Z,5.50
2018-11-04T00:45:44.057Z,5.50
2018-11-04T00:48:12.556Z,5.40
2018-11-04T00:50:41.060Z,5.50
2018-11-04T00:53:09.449Z,5.40
2018-11-04T00:55:37.988Z,5.40
2018-11-04T00:58:06.508Z,5.40
2018-11-04T01:00:35.788Z,5.40
2018-11-04T01:03:04.376Z,5.40
2018-11-04T01:05:32.785Z,5.40
2018-11-04T01:08:01.194Z,5.50
2018-11-04T01:10:29.720Z,5.60
2018-11-04T01:12:58.258Z,5.60
2018-11-04T01:15:26.804Z,5.70
2018-11-04T01:17:55.325Z,5.80
2018-11-04T01:20:23.808Z,5.80
2018-11-04T01:22:52.217Z,5.80
2018-11-04T01:25:20.799Z,5.80
2018-11-04T01:27:49.306Z,5.80
2018-11-04T01:30:17.714Z,5.90
2018-11-04T01:32:46.154Z,6.00
2018-11-04T01:35:14.643Z,6.00
2018-11-04T01:37:43.492Z,5.90
2018-11-04T01:40:11.883Z,5.80
2018-11-04T01:42:40.402Z,5.80
2018-11-04T01:45:10.037Z,5.90
2018-11-04T01:47:38.498Z,5.90
2018-11-04T01:50:09.049Z,5.80
2018-11-04T01:52:37.465Z,5.70
2018-11-04T01:55:06.937Z,5.70
2018-11-04T01:57:35.636Z,5.70
2018-11-04T02:00:05.960Z,5.80
2018-11-04T02:02:34.501Z,5.70
2018-11-04T02:05:02.888Z,5.60
2018-11-04T02:07:31.770Z,5.60
2018-11-04T02:10:00.259Z,5.60
2018-11-04T02:12:28.835Z,5.60
2018-11-04T02:14:57.714Z,5.70
2018-11-04T02:17:26.211Z,5.70
2018-11-04T02:19:54.656Z,5.60
2018-11-04T02:22:23.009Z,5.60
2018-11-04T02:24:51.440Z,5.60
2018-11-04T02:27:19.843Z,5.60
2018-11-04T02:29:48.332Z,5.60
2018-11-04T02:32:16.793Z,5.60
2018-11-04T02:34:45.206Z,5.60
2018-11-04T02:37:13.597Z,5.60
2018-11-04T02:39:41.966Z,5.60
2018-11-04T02:42:10.395Z,5.70
2018-11-04T02:44:38.926Z,5.70
2018-11-04T02:47:07.463Z,5.70
2018-11-04T02:49:35.858Z,5.70
2018-11-04T02:52:04.646Z,5.70
2018-11-04T02:54:33.032Z,5.70
2018-11-04T02:57:01.497Z,5.80
2018-11-04T02:59:29.905Z,5.70
2018-11-04T03:01:58.349Z,5.70
2018-11-04T03:04:26.850Z,5.70
2018-11-04T03:06:55.340Z,5.80
2018-11-04T03:09:23.817Z,5.90
2018-11-04T03:11:52.200Z,5.80
2018-11-04T03:14:20.692Z,5.90
2018-11-04T03:16:49.106Z,6.00
2018-11-04T03:19:17.612Z,6.00
2018-11-04T03:21:46.018Z,6.00
2018-11-04T03:24:15.007Z,6.00
2018-11-04T03:26:43.388Z,6.10
2018-11-04T03:29:12.276Z,6.00
2018-11-04T03:31:40.658Z,6.10
2018-11-04T03:34:09.048Z,6.10
2018-11-04T03:36:38.009Z,6.10
2018-11-04T03:39:08.681Z,6.20
2018-11-04T03:41:37.110Z,6.30
2018-11-04T03:44:06.249Z,6.30
2018-11-04T03:46:35.147Z,6.30
2018-11-04T03:49:03.659Z,6.30
2018-11-04T03:51:33.009Z,6.30
2018-11-04T03:54:02.053Z,6.30
2018-11-04T03:56:30.495Z,6.50
2018-11-04T03:58:58.907Z,6.50
2018-11-04T04:01:27.703Z,6.50
2018-11-04T04:03:56.140Z,6.60
2018-11-04T04:06:24.553Z,6.60
2018-11-04T04:08:53.048Z,6.70
2018-11-04T04:11:21.399Z,6.70
2018-11-04T04:13:49.792Z,6.80
2018-11-04T04:16:18.160Z,6.70
2018-11-04T04:18:46.548Z,6.70
2018-11-04T04:21:14.921Z,6.80
2018-11-04T04:23:43.491Z,6.90
2018-11-04T04:26:12.386Z,6.80
2018-11-04T04:28:41.173Z,6.80
2018-11-04T04:31:09.617Z,6.90
2018-11-04T04:33:38.157Z,7.10
2018-11-04T04:36:06.750Z,6.90
2018-11-04T04:38:35.172Z,6.80
2018-11-04T04:41:03.587Z,6.80
2018-11-04T04:43:31.968Z,6.70
2018-11-04T04:46:00.408Z,6.80
2018-11-04T04:48:28.934Z,6.70
2018-11-04T04:50:57.324Z,6.70
2018-11-04T04:53:26.204Z,6.90
2018-11-04T04:55:56.215Z,6.90
2018-11-04T04:58:24.632Z,7.00
2018-11-04T05:00:53.904Z,6.90
2018-11-04T05:03:22.676Z,6.80
2018-11-04T05:05:51.201Z,6.80
2018-11-04T05:08:19.778Z,6.90
2018-11-04T05:10:48.541Z,6.90
2018-11-04T05:13:16.919Z,6.90
2018-11-04T05:15:45.316Z,7.00
2018-11-04T05:18:13.825Z,7.00
2018-11-04T05:20:42.357Z,7.10
2018-11-04T05:23:10.833Z,7.30
2018-11-04T05:25:39.229Z,7.30
2018-11-04T05:28:08.121Z,7.30
2018-11-04T05:30:36.500Z,7.30
2018-11-04T05:33:05.369Z,7.30
2018-11-04T05:35:33.733Z,7.30
2018-11-04T05:38:02.125Z,7.30
2018-11-04T05:40:30.632Z,7.30
2018-11-04T05:42:59.071Z,7.40
2018-11-04T05:45:27.467Z,7.40
2018-11-04T05:47:55.981Z,7.30
2018-11-04T05:50:24.900Z,7.30
2018-11-04T05:52:53.308Z,7.20
2018-11-04T05:55:21.689Z,7.20
2018-11-04T05:57:50.184Z,7.30
2018-11-04T06:00:18.624Z,7.30
2018-11-04T06:02:47.164Z,7.40
2018-11-04T06:05:15.672Z,7.40
2018-11-04T06:07:44.064Z,7.50
2018-11-04T06:10:12.446Z,7.60
2018-11-04T06:12:41.600Z,7.60
2018-11-04T06:15:10.395Z,7.70
2018-11-04T06:17:38.848Z,7.70
2018-11-04T06:20:10.437Z,7.80
2018-11-04T06:22:38.823Z,7.80
2018-11-04T06:25:07.507Z,7.80
2018-11-04T06:27:35.887Z,7.80
2018-11-04T06:30:06.117Z,7.80
2018-11-04T06:32:35.202Z,7.80
2018-11-04T06:35:03.643Z,7.90
2018-11-04T06:37:32.024Z,7.90
2018-11-04T06:40:00.553Z,7.90
2018-11-04T06:42:29.188Z,7.70
2018-11-04T06:44:57.593Z,7.60
2018-11-04T06:47:25.979Z,7.60
2018-11-04T06:49:54.452Z,7.60
2018-11-04T06:52:22.920Z,7.60
2018-11-04T06:54:51.316Z,7.70
2018-11-04T06:57:19.818Z,7.70
2018-11-04T06:59:48.230Z,7.60
2018-11-04T07:02:16.656Z,7.70
2018-11-04T07:04:45.032Z,7.80
2018-11-04T07:07:13.514Z,8.00
2018-11-04T07:09:41.872Z,7.80
2018-11-04T07:12:10.363Z,7.80
2018-11-04T07:14:38.736Z,7.80
2018-11-04T07:17:07.178Z,7.80
2018-11-04T07:19:35.692Z,7.90
2018-11-04T07:22:04.080Z,8.10
2018-11-04T07:24:32.624Z,8.00
2018-11-04T07:27:01.012Z,7.90
2018-11-04T07:29:29.528Z,7.90
2018-11-04T07:31:57.961Z,8.00
2018-11-04T07:34:26.340Z,7.90
2018-11-04T07:36:54.712Z,7.80
2018-11-04T07:39:23.421Z,7.80
2018-11-04T07:41:51.960Z,8.00
2018-11-04T07:44:20.552Z,8.00
2018-11-04T07:46:48.977Z,8.10
2018-11-04T07:49:17.481Z,8.10
2018-11-04T07:51:45.997Z,8.10
2018-11-04T07:54:14.644Z,8.20
2018-11-04T07:56:43.191Z,8.20
2018-11-04T07:59:11.608Z,8.30
2018-11-04T08:01:40.657Z,8.20
2018-11-04T08:04:09.152Z,8.20
2018-11-04T08:06:37.586Z,8.20
2018-11-04T08:09:07.932Z,8.20
2018-11-04T08:11:36.351Z,8.20
2018-11-04T08:14:05.017Z,8.30
2018-11-04T08:16:35.187Z,8.40
2018-11-04T08:19:03.597Z,8.40
2018-11-04T08:21:32.073Z,8.50
2018-11-04T08:24:00.540Z,8.50
2018-11-04T08:26:29.084Z,8.50
2018-11-04T08:28:57.611Z,8.60
2018-11-04T08:31:26.156Z,8.70
2018-11-04T08:33:54.528Z,8.80
2018-11-04T08:36:22.913Z,9.00
2018-11-04T08:38:51.454Z,8.80
2018-11-04T08:41:19.843Z,8.90
2018-11-04T08:43:48.229Z,8.80
2018-11-04T08:46:16.784Z,8.80
2018-11-04T08:48:45.343Z,8.90
2018-11-04T08:51:13.990Z,9.00
2018-11-04T08:53:42.527Z,9.00
2018-11-04T08:56:10.919Z,9.10
2018-11-04T08:58:39.321Z,9.20
2018-11-04T09:01:07.757Z,9.20
2018-11-04T09:03:36.264Z,9.20
2018-11-04T09:06:05.066Z,9.20
2018-11-04T09:08:33.433Z,9.20
2018-11-04T09:11:01.914Z,9.20
2018-11-04T09:13:30.514Z,9.20
2018-11-04T09:15:58.928Z,9.30
2018-11-04T09:18:27.341Z,9.30
2018-11-04T09:20:55.962Z,9.40
2018-11-04T09:23:24.960Z,9.60
2018-11-04T09:25:53.465Z,9.60
2018-11-04T09:28:21.905Z,9.80
2018-11-04T09:30:50.329Z,9.80
2018-11-04T09:33:18.720Z,9.80
2018-11-04T09:35:47.464Z,9.90
2018-11-04T09:38:15.797Z,10.00
2018-11-04T09:40:44.211Z,10.10
2018-11-04T09:43:12.659Z,10.10
2018-11-04T09:45:41.176Z,10.00
2018-11-04T09:48:09.908Z,10.10
2018-11-04T09:50:38.448Z,10.20
2018-11-04T09:53:06.945Z,10.30
2018-11-04T09:55:35.552Z,10.40
2018-11-04T09:58:04.064Z,10.60
2018-11-04T10:00:32.560Z,10.50
2018-11-04T10:03:01.241Z,10.60
2018-11-04T10:05:29.776Z,10.80
2018-11-04T10:07:58.264Z,10.70
2018-11-04T10:10:26.897Z,10.70
2018-11-04T10:12:56.239Z,10.70
2018-11-04T10:15:24.643Z,10.70
2018-11-04T10:17:53.076Z,10.80
2018-11-04T10:20:21.639Z,10.90
2018-11-04T10:22:49.970Z,11.20
2018-11-04T10:25:18.386Z,11.20
2018-11-04T10:27:46.794Z,11.20
2018-11-04T10:30:16.577Z,11.20
2018-11-04T10:32:45.215Z,11.20
2018-11-04T10:35:13.994Z,11.30
2018-11-04T10:37:43.099Z,11.90
2018-11-04T10:40:12.393Z,12.30
2018-11-04T10:42:40.817Z,12.40
2018-11-04T10:45:10.460Z,12.30
2018-11-04T10:47:38.957Z,12.10
2018-11-04T10:50:09.486Z,12.30
2018-11-04T10:52:38.190Z,12.40
2018-11-04T10:55:07.269Z,12.40
2018-11-04T10:57:35.692Z,12.50
2018-11-04T11:00:04.961Z,12.50
2018-11-04T11:02:33.528Z,12.50
2018-11-04T11:05:02.097Z,12.50
2018-11-04T11:08:11.496Z,12.50
2018-11-04T11:10:39.950Z,12.70
2018-11-04T11:13:08.568Z,13.00
2018-11-04T11:15:37.094Z,13.50
2018-11-04T11:18:05.813Z,14.70
2018-11-04T11:20:34.837Z,15.10
2018-11-04T11:23:03.355Z,14.90
2018-11-04T11:25:31.844Z,14.70
2018-11-04T11:28:00.332Z,14.90
2018-11-04T11:30:28.941Z,15.60
2018-11-04T11:32:57.352Z,16.10
2018-11-04T11:35:25.940Z,16.20
2018-11-04T11:37:55.143Z,15.90
2018-11-04T11:40:23.621Z,15.70
2018-11-04T11:42:52.036Z,15.80
2018-11-04T11:45:20.569Z,15.80
2018-11-04T11:47:49.071Z,15.60
2018-11-04T11:50:17.678Z,15.20
2018-11-04T11:52:46.514Z,15.10
2018-11-04T11:55:15.068Z,15.10
2018-11-04T11:57:43.661Z,15.00
2018-11-04T12:00:12.334Z,15.30
2018-11-04T12:02:41.137Z,15.40
2018-11-04T12:05:10.206Z,15.50
2018-11-04T12:07:39.155Z,15.40
2018-11-04T12:10:10.240Z,15.60
2018-11-04T12:12:38.797Z,15.60
2018-11-04T12:15:08.166Z,15.40
2018-11-04T12:17:36.617Z,15.40
2018-11-04T12:20:06.715Z,15.80
2018-11-04T12:22:35.164Z,16.00
2018-11-04T12:25:03.834Z,15.90
2018-11-04T12:27:32.376Z,16.20
2018-11-04T12:30:00.925Z,16.30
2018-11-04T12:32:29.468Z,16.00
2018-11-04T12:34:57.921Z,15.80
2018-11-04T12:37:26.306Z,15.50
2018-11-04T12:39:54.844Z,15.10
2018-11-04T12:42:23.611Z,14.90
2018-11-04T12:44:52.185Z,15.00
2018-11-04T12:47:20.593Z,14.60
2018-11-04T12:49:49.012Z,14.40
2018-11-04T12:52:17.488Z,14.30
2018-11-04T12:54:45.973Z,14.30
2018-11-04T12:57:14.549Z,14.20
2018-11-04T12:59:43.002Z,14.00
2018-11-04T14:36:03.645Z,13.10
2018-11-04T14:38:32.077Z,13.20
2018-11-04T14:41:00.636Z,13.20
2018-11-04T14:43:29.257Z,13.20
2018-11-04T14:45:58.012Z,13.20
2018-11-04T14:48:26.638Z,13.20
2018-11-04T14:50:55.077Z,13.20
2018-11-04T14:53:23.821Z,13.10
2018-11-04T14:55:52.487Z,13.20
2018-11-04T14:58:20.908Z,13.10
2018-11-04T15:00:49.368Z,13.10
2018-11-04T15:03:17.951Z,13.00
2018-11-04T15:05:46.436Z,12.90
2018-11-04T15:08:15.000Z,12.90
2018-11-04T15:10:43.419Z,12.90
2018-11-04T15:13:11.961Z,12.90
2018-11-04T15:15:40.369Z,12.90
2018-11-04T15:18:08.921Z,12.80
2018-11-04T15:20:37.420Z,12.80
2018-11-04T15:23:06.110Z,12.90
2018-11-04T15:25:34.569Z,12.90
2018-11-04T15:28:03.431Z,12.90
2018-11-04T15:30:31.933Z,12.90
2018-11-04T15:33:00.407Z,12.90
2018-11-04T15:35:29.033Z,12.80
2018-11-04T15:37:57.719Z,12.90
2018-11-04T15:40:26.358Z,12.80
2018-11-04T15:42:54.872Z,12.70
2018-11-04T15:45:23.410Z,12.70
2018-11-04T15:47:51.904Z,12.70
2018-11-04T15:50:20.396Z,12.70
2018-11-04T15:52:49.447Z,12.70
2018-11-04T15:55:19.064Z,12.80
2018-11-04T15:57:47.592Z,12.70
2018-11-04T16:00:16.317Z,12.70
2018-11-04T16:02:44.899Z,12.60
2018-11-04T16:05:13.489Z,12.60
2018-11-04T16:07:42.018Z,12.50
2018-11-04T16:10:11.769Z,12.60
2018-11-04T16:12:40.261Z,12.60
2018-11-04T16:15:11.397Z,12.60
2018-11-04T16:17:40.593Z,12.60
2018-11-04T16:20:10.932Z,12.60
2018-11-04T16:22:40.197Z,12.60
2018-11-04T16:25:09.014Z,12.50
2018-11-04T16:27:38.082Z,12.40
2018-11-04T16:30:08.132Z,12.40
2018-11-04T16:32:38.136Z,12.40
2018-11-04T16:35:07.836Z,12.40
2018-11-04T16:37:36.997Z,12.30
2018-11-04T16:40:05.995Z,12.30
2018-11-04T16:42:34.509Z,12.30
2018-11-04T16:45:03.552Z,12.30
2018-11-04T16:47:31.981Z,12.30
2018-11-04T16:50:00.629Z,12.30
2018-11-04T16:52:29.110Z,12.30
2018-11-04T16:54:57.669Z,12.30
2018-11-04T16:57:26.198Z,12.40
2018-11-04T16:59:54.646Z,12.50
2018-11-04T17:02:23.506Z,12.50
2018-11-04T17:04:51.987Z,12.30
2018-11-04T17:07:20.763Z,12.30
2018-11-04T17:09:49.237Z,12.30
2018-11-04T17:12:17.686Z,12.40
2018-11-04T17:14:46.105Z,12.40
2018-11-04T17:17:14.711Z,12.40
2018-11-04T17:19:43.485Z,12.40
2018-11-04T17:22:12.404Z,12.40
2018-11-04T17:24:40.953Z,12.40
2018-11-04T17:27:09.540Z,12.40
2018-11-04T17:29:38.109Z,12.40
2018-11-04T17:32:06.612Z,12.40
2018-11-04T17:34:35.201Z,12.40
2018-11-04T17:37:03.667Z,12.40
2018-11-04T17:39:32.258Z,12.40
2018-11-04T17:42:00.741Z,12.40
2018-11-04T17:44:29.210Z,12.40
2018-11-04T17:46:57.737Z,12.40
2018-11-04T17:49:26.140Z,12.40
2018-11-04T17:51:54.829Z,12.30
2018-11-04T17:54:23.356Z,12.30
2018-11-04T17:56:52.355Z,12.30
2018-11-04T17:59:20.913Z,12.40
2018-11-04T18:01:49.464Z,12.40
2018-11-04T18:04:18.519Z,12.30
2018-11-04T18:06:46.975Z,12.30
2018-11-04T18:09:15.410Z,12.30
2018-11-04T18:11:43.939Z,12.30
2018-11-04T18:14:12.388Z,12.20
2018-11-04T18:16:41.470Z,12.20
2018-11-04T18:19:10.088Z,12.10
2018-11-04T18:21:38.715Z,11.90
2018-11-04T18:24:07.286Z,11.90
2018-11-04T18:26:35.813Z,11.90
2018-11-04T18:29:04.342Z,11.80
2018-11-04T18:31:32.878Z,11.90
2018-11-04T18:34:01.935Z,11.90
2018-11-04T18:36:30.528Z,11.90
2018-11-04T18:38:59.123Z,11.80
2018-11-04T18:41:27.534Z,11.80
2018-11-04T18:43:56.228Z,11.80
2018-11-04T18:46:24.590Z,11.80
2018-11-04T18:48:53.641Z,11.80
2018-11-04T18:51:22.213Z,11.90
2018-11-04T18:53:50.640Z,11.90
2018-11-04T18:56:19.782Z,11.90
2018-11-04T18:58:48.549Z,11.80
2018-11-04T19:01:17.151Z,11.90
2018-11-04T19:03:45.774Z,11.90
2018-11-04T19:06:14.366Z,11.90
2018-11-04T19:08:42.885Z,11.90
2018-11-04T19:11:11.424Z,12.00
2018-11-04T19:13:40.005Z,11.90
2018-11-04T19:16:08.605Z,11.90
2018-11-04T19:18:37.225Z,12.00
2018-11-04T19:21:05.940Z,11.90
2018-11-04T19:23:35.045Z,12.00
2018-11-04T19:26:03.743Z,11.90
2018-11-04T19:28:32.310Z,12.00
2018-11-04T19:31:00.768Z,11.90
2018-11-04T19:33:29.277Z,11.90
2018-11-04T19:35:57.716Z,11.90
2018-11-04T19:38:26.336Z,11.90
2018-11-04T19:40:54.774Z,12.00
2018-11-04T19:43:23.249Z,12.00
2018-11-04T19:45:52.593Z,11.90
2018-11-04T19:48:21.328Z,11.90
2018-11-04T19:50:49.828Z,11.80
2018-11-04T19:53:18.464Z,11.80
2018-11-04T19:55:47.031Z,11.90
2018-11-04T19:58:15.507Z,11.80
2018-11-04T20:00:44.017Z,12.00
2018-11-04T20:03:12.789Z,11.90
2018-11-04T20:05:42.541Z,11.80
2018-11-04T20:08:11.550Z,11.80
2018-11-04T20:10:40.028Z,11.80
2018-11-04T20:13:14.019Z,11.80
2018-11-04T20:15:42.564Z,11.80
2018-11-04T20:18:16.383Z,11.80
2018-11-04T20:20:45.595Z,11.90
2018-11-04T20:23:14.171Z,11.90
2018-11-04T20:25:48.262Z,11.80
2018-11-04T20:28:16.759Z,11.80
2018-11-04T20:30:45.320Z,11.70
2018-11-04T20:33:15.518Z,11.70
2018-11-04T20:35:44.108Z,11.70
2018-11-04T20:38:12.553Z,11.80
2018-11-04T20:40:46.483Z,11.90
2018-11-04T20:43:15.779Z,11.90
2018-11-04T20:45:44.328Z,12.00
2018-11-04T20:48:18.393Z,12.00
2018-11-04T20:50:52.288Z,12.00
2018-11-04T20:53:20.810Z,12.00
2018-11-04T20:55:54.734Z,12.00
2018-11-04T20:58:23.353Z,12.00
2018-11-04T21:00:51.609Z,12.00
2018-11-04T21:03:20.157Z,12.00
2018-11-04T21:05:48.740Z,12.00
2018-11-04T21:08:17.532Z,11.90
2018-11-04T21:10:46.058Z,11.80
2018-11-04T21:13:14.518Z,11.70
2018-11-04T21:15:43.112Z,11.70
2018-11-04T21:18:11.691Z,11.80
2018-11-04T21:20:40.297Z,11.80
2018-11-04T21:23:08.842Z,11.80
2018-11-04T21:25:37.422Z,11.90
2018-11-04T21:28:05.992Z,11.90
2018-11-04T21:30:34.489Z,11.90
2018-11-04T21:33:03.003Z,11.90
2018-11-04T21:35:31.541Z,11.90
2018-11-04T21:38:00.021Z,11.90
2018-11-04T21:40:28.506Z,11.90
2018-11-04T21:42:56.979Z,11.90
2018-11-04T21:45:25.465Z,11.90
2018-11-04T21:47:53.879Z,12.00
2018-11-04T21:50:28.983Z,12.00
2018-11-04T21:52:57.412Z,11.90
2018-11-04T21:55:26.227Z,11.90
2018-11-04T21:57:55.019Z,11.90
2018-11-04T22:00:23.688Z,11.90
2018-11-04T22:02:52.397Z,11.90
2018-11-04T22:05:20.655Z,11.80
2018-11-04T22:07:49.186Z,11.80
2018-11-04T22:10:17.719Z,11.90
2018-11-04T22:12:46.124Z,11.90
2018-11-04T22:15:14.625Z,11.90
2018-11-04T22:17:43.132Z,11.90
2018-11-04T22:20:12.745Z,12.00
2018-11-04T22:22:41.225Z,12.00
2018-11-04T22:25:11.120Z,11.90
2018-11-04T22:27:39.624Z,11.90
2018-11-04T22:30:09.421Z,11.90
2018-11-04T22:32:38.462Z,11.90
2018-11-04T22:35:08.036Z,11.80
2018-11-04T22:37:36.801Z,11.70
2018-11-04T22:40:06.533Z,11.80
2018-11-04T22:42:34.945Z,11.80
2018-11-04T22:45:04.101Z,11.80
2018-11-04T22:47:32.630Z,11.80
2018-11-04T22:50:01.053Z,11.80
2018-11-04T22:52:29.462Z,11.70
2018-11-04T22:54:57.851Z,11.80
2018-11-04T22:57:26.234Z,11.70
2018-11-04T22:59:54.607Z,11.80
2018-11-04T23:02:23.052Z,11.80
2018-11-04T23:04:57.026Z,11.90
2018-11-04T23:07:25.419Z,11.80
2018-11-04T23:09:53.818Z,11.80
2018-11-04T23:12:22.240Z,11.80
2018-11-04T23:14:50.713Z,11.80
2018-11-04T23:17:19.279Z,11.80
2018-11-04T23:19:47.673Z,11.70
2018-11-04T23:22:16.085Z,11.60
2018-11-04T23:24:44.461Z,11.70
2018-11-04T23:27:13.055Z,11.70
2018-11-04T23:29:41.416Z,11.70
2018-11-04T23:32:09.929Z,11.70
2018-11-04T23:34:38.332Z,11.70
2018-11-04T23:37:07.107Z,11.70
2018-11-04T23:39:35.494Z,11.80
2018-11-04T23:42:04.049Z,11.80
2018-11-04T23:44:32.492Z,11.90
2018-11-04T23:47:00.891Z,11.80
2018-11-04T23:49:29.412Z,11.70
2018-11-04T23:51:57.809Z,11.70
2018-11-04T23:54:26.804Z,11.70
2018-11-04T23:56:55.190Z,11.70
2018-11-04T23:59:23.689Z,11.80
